sensor_id;sensor_type;location;lat;lon;timestamp;temperature;humidity
463;DHT22;218;51.902;9.542;2022-10-16T00:01:05;18.00;1.00
463;DHT22;218;51.902;9.542;2022-10-16T00:03:33;17.90;1.00
463;DHT22;218;51.902;9.542;2022-10-16T00:06:01;17.90;1.00
463;DHT22;218;51.902;9.542;2022-10-16T00:08:28;17.90;1.00
463;DHT22;218;51.902;9.542;2022-10-16T00:11:01;17.80;1.00
463;DHT22;218;51.902;9.542;2022-10-16T00:13:29;17.80;1.00
463;DHT22;218;51.902;9.542;2022-10-16T00:15:57;17.80;1.00
463;DHT22;218;51.902;9.542;2022-10-16T00:18:25;17.80;1.00
463;DHT22;218;51.902;9.542;2022-10-16T00:20:52;17.70;1.00
463;DHT22;218;51.902;9.542;2022-10-16T00:23:20;17.70;1.00
463;DHT22;218;51.902;9.542;2022-10-16T00:25:55;17.70;1.00
463;DHT22;218;51.902;9.542;2022-10-16T00:30:51;17.60;1.00
463;DHT22;218;51.902;9.542;2022-10-16T00:33:18;17.60;1.00
463;DHT22;218;51.902;9.542;2022-10-16T00:35:46;17.50;1.00
463;DHT22;218;51.902;9.542;2022-10-16T00:38:13;17.50;1.00
463;DHT22;218;51.902;9.542;2022-10-16T00:40:40;17.50;1.00
463;DHT22;218;51.902;9.542;2022-10-16T00:43:12;17.40;1.00
463;DHT22;218;51.902;9.542;2022-10-16T00:45:42;17.40;1.00
463;DHT22;218;51.902;9.542;2022-10-16T00:48:13;17.40;1.00
463;DHT22;218;51.902;9.542;2022-10-16T00:50:40;17.30;1.00
463;DHT22;218;51.902;9.542;2022-10-16T00:53:10;17.30;1.00
463;DHT22;218;51.902;9.542;2022-10-16T00:55:38;17.30;1.00
463;DHT22;218;51.902;9.542;2022-10-16T00:58:05;17.30;1.00
463;DHT22;218;51.902;9.542;2022-10-16T01:00:33;17.30;1.00
463;DHT22;218;51.902;9.542;2022-10-16T01:03:02;17.30;1.00
463;DHT22;218;51.902;9.542;2022-10-16T01:05:33;17.30;1.00
463;DHT22;218;51.902;9.542;2022-10-16T01:08:04;17.30;1.00
463;DHT22;218;51.902;9.542;2022-10-16T01:10:38;17.30;1.00
463;DHT22;218;51.902;9.542;2022-10-16T01:13:07;17.30;1.00
463;DHT22;218;51.902;9.542;2022-10-16T01:15:39;17.30;1.00
463;DHT22;218;51.902;9.542;2022-10-16T01:18:13;17.20;1.00
463;DHT22;218;51.902;9.542;2022-10-16T01:20:45;17.20;1.00
463;DHT22;218;51.902;9.542;2022-10-16T01:25:59;17.20;1.00
463;DHT22;218;51.902;9.542;2022-10-16T01:28:36;17.20;1.00
463;DHT22;218;51.902;9.542;2022-10-16T01:31:05;17.20;1.00
463;DHT22;218;51.902;9.542;2022-10-16T01:33:37;17.20;1.00
463;DHT22;218;51.902;9.542;2022-10-16T01:36:10;17.20;1.00
463;DHT22;218;51.902;9.542;2022-10-16T01:38:39;17.20;1.00
463;DHT22;218;51.902;9.542;2022-10-16T01:41:09;17.20;1.00
463;DHT22;218;51.902;9.542;2022-10-16T01:43:42;17.20;1.00
463;DHT22;218;51.902;9.542;2022-10-16T01:46:10;17.20;1.00
463;DHT22;218;51.902;9.542;2022-10-16T01:48:40;17.20;1.00
463;DHT22;218;51.902;9.542;2022-10-16T01:53:37;17.00;1.00
463;DHT22;218;51.902;9.542;2022-10-16T01:56:07;17.00;1.00
463;DHT22;218;51.902;9.542;2022-10-16T02:01:07;16.90;1.00
463;DHT22;218;51.902;9.542;2022-10-16T02:03:36;16.90;1.00
463;DHT22;218;51.902;9.542;2022-10-16T02:06:06;16.90;1.00
463;DHT22;218;51.902;9.542;2022-10-16T02:08:35;16.80;1.00
463;DHT22;218;51.902;9.542;2022-10-16T02:11:02;16.90;1.00
463;DHT22;218;51.902;9.542;2022-10-16T02:13:38;16.80;1.00
463;DHT22;218;51.902;9.542;2022-10-16T02:16:09;16.80;1.00
463;DHT22;218;51.902;9.542;2022-10-16T02:18:37;16.80;1.00
463;DHT22;218;51.902;9.542;2022-10-16T02:21:10;16.80;1.00
463;DHT22;218;51.902;9.542;2022-10-16T02:23:43;16.80;1.00
463;DHT22;218;51.902;9.542;2022-10-16T02:26:15;16.80;1.00
463;DHT22;218;51.902;9.542;2022-10-16T02:28:46;16.80;1.00
463;DHT22;218;51.902;9.542;2022-10-16T02:33:46;16.80;1.00
463;DHT22;218;51.902;9.542;2022-10-16T02:43:35;16.90;1.00
463;DHT22;218;51.902;9.542;2022-10-16T02:46:02;16.80;1.00
463;DHT22;218;51.902;9.542;2022-10-16T02:50:58;16.80;1.00
463;DHT22;218;51.902;9.542;2022-10-16T02:53:25;16.80;1.00
463;DHT22;218;51.902;9.542;2022-10-16T02:55:51;16.80;1.00
463;DHT22;218;51.902;9.542;2022-10-16T02:58:18;16.80;1.00
463;DHT22;218;51.902;9.542;2022-10-16T03:00:45;16.70;1.00
463;DHT22;218;51.902;9.542;2022-10-16T03:03:12;16.80;1.00
463;DHT22;218;51.902;9.542;2022-10-16T03:05:42;16.80;1.00
463;DHT22;218;51.902;9.542;2022-10-16T03:08:11;16.80;1.00
463;DHT22;218;51.902;9.542;2022-10-16T03:10:38;16.80;1.00
463;DHT22;218;51.902;9.542;2022-10-16T03:13:05;16.70;1.00
463;DHT22;218;51.902;9.542;2022-10-16T03:15:31;16.70;1.00
463;DHT22;218;51.902;9.542;2022-10-16T03:17:59;16.70;1.00
463;DHT22;218;51.902;9.542;2022-10-16T03:22:55;16.70;1.00
463;DHT22;218;51.902;9.542;2022-10-16T03:25:22;16.70;1.00
463;DHT22;218;51.902;9.542;2022-10-16T03:30:16;16.70;1.00
463;DHT22;218;51.902;9.542;2022-10-16T03:32:43;16.60;1.00
463;DHT22;218;51.902;9.542;2022-10-16T03:35:10;16.60;1.00
463;DHT22;218;51.902;9.542;2022-10-16T03:37:37;16.60;1.00
463;DHT22;218;51.902;9.542;2022-10-16T03:42:33;16.60;1.00
463;DHT22;218;51.902;9.542;2022-10-16T03:47:28;16.60;1.00
463;DHT22;218;51.902;9.542;2022-10-16T03:49:54;16.50;1.00
463;DHT22;218;51.902;9.542;2022-10-16T03:52:21;16.50;1.00
463;DHT22;218;51.902;9.542;2022-10-16T03:54:48;16.50;1.00
463;DHT22;218;51.902;9.542;2022-10-16T03:59:44;16.30;1.00
463;DHT22;218;51.902;9.542;2022-10-16T04:02:11;16.40;1.00
463;DHT22;218;51.902;9.542;2022-10-16T04:04:38;16.40;1.00
463;DHT22;218;51.902;9.542;2022-10-16T04:07:05;16.40;1.00
463;DHT22;218;51.902;9.542;2022-10-16T04:11:59;16.50;1.00
463;DHT22;218;51.902;9.542;2022-10-16T04:14:27;16.50;1.00
463;DHT22;218;51.902;9.542;2022-10-16T04:21:48;16.60;1.00
463;DHT22;218;51.902;9.542;2022-10-16T04:26:42;16.60;1.00
463;DHT22;218;51.902;9.542;2022-10-16T04:29:09;16.60;1.00
463;DHT22;218;51.902;9.542;2022-10-16T04:34:04;16.70;1.00
463;DHT22;218;51.902;9.542;2022-10-16T04:36:31;16.70;1.00
463;DHT22;218;51.902;9.542;2022-10-16T04:38:58;16.80;1.00
463;DHT22;218;51.902;9.542;2022-10-16T04:41:25;16.70;1.00
463;DHT22;218;51.902;9.542;2022-10-16T04:43:52;16.70;1.00
463;DHT22;218;51.902;9.542;2022-10-16T04:46:19;16.70;1.00
463;DHT22;218;51.902;9.542;2022-10-16T04:51:14;16.80;1.00
463;DHT22;218;51.902;9.542;2022-10-16T04:53:41;16.80;1.00
463;DHT22;218;51.902;9.542;2022-10-16T04:56:08;16.80;1.00
463;DHT22;218;51.902;9.542;2022-10-16T04:58:35;16.80;1.00
463;DHT22;218;51.902;9.542;2022-10-16T05:01:02;16.80;1.00
463;DHT22;218;51.902;9.542;2022-10-16T05:03:29;16.80;1.00
463;DHT22;218;51.902;9.542;2022-10-16T05:05:57;16.80;1.00
463;DHT22;218;51.902;9.542;2022-10-16T05:08:24;16.80;1.00
463;DHT22;218;51.902;9.542;2022-10-16T05:10:51;16.80;1.00
463;DHT22;218;51.902;9.542;2022-10-16T05:13:18;16.90;1.00
463;DHT22;218;51.902;9.542;2022-10-16T05:15:47;16.80;1.00
463;DHT22;218;51.902;9.542;2022-10-16T05:20:41;16.90;1.00
463;DHT22;218;51.902;9.542;2022-10-16T05:23:09;16.90;1.00
463;DHT22;218;51.902;9.542;2022-10-16T05:25:37;16.90;1.00
463;DHT22;218;51.902;9.542;2022-10-16T05:28:04;16.90;1.00
463;DHT22;218;51.902;9.542;2022-10-16T05:30:31;16.80;1.00
463;DHT22;218;51.902;9.542;2022-10-16T05:35:25;16.80;1.00
463;DHT22;218;51.902;9.542;2022-10-16T05:37:52;16.90;1.00
463;DHT22;218;51.902;9.542;2022-10-16T05:42:48;16.90;1.00
463;DHT22;218;51.902;9.542;2022-10-16T05:45:15;16.90;1.00
463;DHT22;218;51.902;9.542;2022-10-16T05:47:42;16.90;1.00
463;DHT22;218;51.902;9.542;2022-10-16T05:50:09;16.90;1.00
463;DHT22;218;51.902;9.542;2022-10-16T05:52:36;16.90;1.00
463;DHT22;218;51.902;9.542;2022-10-16T05:55:03;16.90;1.00
463;DHT22;218;51.902;9.542;2022-10-16T05:57:32;18.30;1.00
463;DHT22;218;51.902;9.542;2022-10-16T05:59:58;17.00;1.00
463;DHT22;218;51.902;9.542;2022-10-16T06:02:25;17.00;1.00
463;DHT22;218;51.902;9.542;2022-10-16T06:04:52;17.00;1.00
463;DHT22;218;51.902;9.542;2022-10-16T06:07:20;17.00;1.00
463;DHT22;218;51.902;9.542;2022-10-16T06:12:15;17.10;1.00
463;DHT22;218;51.902;9.542;2022-10-16T06:14:44;17.10;1.00
463;DHT22;218;51.902;9.542;2022-10-16T06:17:12;17.10;1.00
463;DHT22;218;51.902;9.542;2022-10-16T06:19:39;17.20;1.00
463;DHT22;218;51.902;9.542;2022-10-16T06:22:06;17.20;1.00
463;DHT22;218;51.902;9.542;2022-10-16T06:24:33;17.20;1.00
463;DHT22;218;51.902;9.542;2022-10-16T06:29:27;17.20;1.00
463;DHT22;218;51.902;9.542;2022-10-16T06:31:56;17.20;1.00
463;DHT22;218;51.902;9.542;2022-10-16T06:34:23;17.20;1.00
463;DHT22;218;51.902;9.542;2022-10-16T06:36:50;17.20;1.00
463;DHT22;218;51.902;9.542;2022-10-16T06:39:17;17.30;1.00
463;DHT22;218;51.902;9.542;2022-10-16T06:41:44;17.30;1.00
463;DHT22;218;51.902;9.542;2022-10-16T06:44:11;17.30;1.00
463;DHT22;218;51.902;9.542;2022-10-16T06:46:37;17.30;1.00
463;DHT22;218;51.902;9.542;2022-10-16T06:49:06;17.40;1.00
463;DHT22;218;51.902;9.542;2022-10-16T06:51:33;17.40;1.00
463;DHT22;218;51.902;9.542;2022-10-16T06:54:01;17.40;1.00
463;DHT22;218;51.902;9.542;2022-10-16T06:58:56;17.50;1.00
463;DHT22;218;51.902;9.542;2022-10-16T07:01:24;17.50;1.00
463;DHT22;218;51.902;9.542;2022-10-16T07:03:52;17.50;1.00
463;DHT22;218;51.902;9.542;2022-10-16T07:06:22;17.50;1.00
463;DHT22;218;51.902;9.542;2022-10-16T07:08:49;17.60;1.00
463;DHT22;218;51.902;9.542;2022-10-16T07:11:18;17.60;1.00
463;DHT22;218;51.902;9.542;2022-10-16T07:13:47;17.60;1.00
463;DHT22;218;51.902;9.542;2022-10-16T07:16:15;17.70;1.00
463;DHT22;218;51.902;9.542;2022-10-16T07:18:44;17.70;1.00
463;DHT22;218;51.902;9.542;2022-10-16T07:21:13;17.70;1.00
463;DHT22;218;51.902;9.542;2022-10-16T07:23:45;17.80;1.00
463;DHT22;218;51.902;9.542;2022-10-16T07:26:16;17.80;1.00
463;DHT22;218;51.902;9.542;2022-10-16T07:28:43;17.80;1.00
463;DHT22;218;51.902;9.542;2022-10-16T07:31:11;17.80;1.00
463;DHT22;218;51.902;9.542;2022-10-16T07:33:39;17.80;1.00
463;DHT22;218;51.902;9.542;2022-10-16T07:36:07;17.90;1.00
463;DHT22;218;51.902;9.542;2022-10-16T07:38:34;17.90;1.00
463;DHT22;218;51.902;9.542;2022-10-16T07:41:04;17.90;1.00
463;DHT22;218;51.902;9.542;2022-10-16T07:43:31;17.90;1.00
463;DHT22;218;51.902;9.542;2022-10-16T07:45:58;18.00;1.00
463;DHT22;218;51.902;9.542;2022-10-16T07:48:30;18.00;1.00
463;DHT22;218;51.902;9.542;2022-10-16T07:50:57;18.10;1.00
463;DHT22;218;51.902;9.542;2022-10-16T07:53:25;18.10;1.00
463;DHT22;218;51.902;9.542;2022-10-16T07:55:54;18.20;1.00
463;DHT22;218;51.902;9.542;2022-10-16T07:58:24;18.30;1.00
463;DHT22;218;51.902;9.542;2022-10-16T08:00:51;18.30;1.00
463;DHT22;218;51.902;9.542;2022-10-16T08:03:18;18.50;1.00
463;DHT22;218;51.902;9.542;2022-10-16T08:05:45;18.50;1.00
463;DHT22;218;51.902;9.542;2022-10-16T08:08:17;18.60;1.00
463;DHT22;218;51.902;9.542;2022-10-16T08:10:45;18.70;1.00
463;DHT22;218;51.902;9.542;2022-10-16T08:13:12;18.80;1.00
463;DHT22;218;51.902;9.542;2022-10-16T08:15:42;18.90;1.00
463;DHT22;218;51.902;9.542;2022-10-16T08:18:09;19.00;1.00
463;DHT22;218;51.902;9.542;2022-10-16T08:20:37;19.00;1.00
463;DHT22;218;51.902;9.542;2022-10-16T08:23:04;19.10;1.00
463;DHT22;218;51.902;9.542;2022-10-16T08:25:31;19.20;1.00
463;DHT22;218;51.902;9.542;2022-10-16T08:27:58;19.20;1.00
463;DHT22;218;51.902;9.542;2022-10-16T08:30:25;19.30;1.00
463;DHT22;218;51.902;9.542;2022-10-16T08:32:53;19.40;1.00
463;DHT22;218;51.902;9.542;2022-10-16T08:35:20;19.50;1.00
463;DHT22;218;51.902;9.542;2022-10-16T08:37:47;19.50;1.00
463;DHT22;218;51.902;9.542;2022-10-16T08:40:18;19.60;1.00
463;DHT22;218;51.902;9.542;2022-10-16T08:43:06;19.80;1.00
463;DHT22;218;51.902;9.542;2022-10-16T08:46:01;19.80;1.00
463;DHT22;218;51.902;9.542;2022-10-16T08:48:38;19.90;1.00
463;DHT22;218;51.902;9.542;2022-10-16T08:51:08;21.70;1.00
463;DHT22;218;51.902;9.542;2022-10-16T08:53:41;20.10;1.00
463;DHT22;218;51.902;9.542;2022-10-16T08:56:09;20.20;1.00
463;DHT22;218;51.902;9.542;2022-10-16T08:58:36;20.30;1.00
463;DHT22;218;51.902;9.542;2022-10-16T09:01:09;20.30;1.00
463;DHT22;218;51.902;9.542;2022-10-16T09:03:53;20.40;1.00
463;DHT22;218;51.902;9.542;2022-10-16T09:06:39;20.50;1.00
463;DHT22;218;51.902;9.542;2022-10-16T09:09:26;20.50;1.00
463;DHT22;218;51.902;9.542;2022-10-16T09:12:00;20.60;1.00
463;DHT22;218;51.902;9.542;2022-10-16T09:17:36;20.70;1.00
463;DHT22;218;51.902;9.542;2022-10-16T09:20:20;20.80;1.00
463;DHT22;218;51.902;9.542;2022-10-16T09:22:50;20.90;1.00
463;DHT22;218;51.902;9.542;2022-10-16T09:25:21;20.90;1.00
463;DHT22;218;51.902;9.542;2022-10-16T09:27:50;21.00;1.00
463;DHT22;218;51.902;9.542;2022-10-16T09:30:20;21.10;1.00
463;DHT22;218;51.902;9.542;2022-10-16T09:32:50;21.10;1.00
463;DHT22;218;51.902;9.542;2022-10-16T09:35:31;21.20;1.00
463;DHT22;218;51.902;9.542;2022-10-16T09:37:58;21.20;1.00
463;DHT22;218;51.902;9.542;2022-10-16T09:40:28;21.30;1.00
463;DHT22;218;51.902;9.542;2022-10-16T09:43:02;21.30;1.00
463;DHT22;218;51.902;9.542;2022-10-16T09:45:30;21.40;1.00
463;DHT22;218;51.902;9.542;2022-10-16T09:47:56;21.50;1.00
463;DHT22;218;51.902;9.542;2022-10-16T09:50:26;21.50;1.00
463;DHT22;218;51.902;9.542;2022-10-16T09:53:11;21.60;1.00
463;DHT22;218;51.902;9.542;2022-10-16T09:55:48;21.60;1.00
463;DHT22;218;51.902;9.542;2022-10-16T09:58:15;21.70;1.00
463;DHT22;218;51.902;9.542;2022-10-16T10:00:49;21.70;1.00
463;DHT22;218;51.902;9.542;2022-10-16T10:03:30;21.80;1.00
463;DHT22;218;51.902;9.542;2022-10-16T10:06:04;21.80;1.00
463;DHT22;218;51.902;9.542;2022-10-16T10:08:32;21.80;1.00
463;DHT22;218;51.902;9.542;2022-10-16T10:10:59;21.90;1.00
463;DHT22;218;51.902;9.542;2022-10-16T10:13:26;21.90;1.00
463;DHT22;218;51.902;9.542;2022-10-16T10:15:54;21.90;1.00
463;DHT22;218;51.902;9.542;2022-10-16T10:18:22;21.90;1.00
463;DHT22;218;51.902;9.542;2022-10-16T10:20:57;21.90;1.00
463;DHT22;218;51.902;9.542;2022-10-16T10:23:28;21.90;1.00
463;DHT22;218;51.902;9.542;2022-10-16T10:26:01;22.00;1.00
463;DHT22;218;51.902;9.542;2022-10-16T10:28:50;22.10;1.00
463;DHT22;218;51.902;9.542;2022-10-16T10:31:26;22.10;1.00
463;DHT22;218;51.902;9.542;2022-10-16T10:33:59;22.20;1.00
463;DHT22;218;51.902;9.542;2022-10-16T10:36:30;22.30;1.00
463;DHT22;218;51.902;9.542;2022-10-16T10:39:04;22.40;1.00
463;DHT22;218;51.902;9.542;2022-10-16T10:42:06;22.50;1.00
463;DHT22;218;51.902;9.542;2022-10-16T10:44:55;22.60;1.00
463;DHT22;218;51.902;9.542;2022-10-16T10:47:29;22.70;1.00
463;DHT22;218;51.902;9.542;2022-10-16T10:50:06;22.80;1.00
463;DHT22;218;51.902;9.542;2022-10-16T10:52:41;22.80;1.00
463;DHT22;218;51.902;9.542;2022-10-16T10:55:24;22.90;1.00
463;DHT22;218;51.902;9.542;2022-10-16T11:01:02;23.10;1.00
463;DHT22;218;51.902;9.542;2022-10-16T11:03:58;23.20;1.00
463;DHT22;218;51.902;9.542;2022-10-16T11:06:30;23.20;1.00
463;DHT22;218;51.902;9.542;2022-10-16T11:09:02;23.20;1.00
463;DHT22;218;51.902;9.542;2022-10-16T11:11:37;23.30;1.00
463;DHT22;218;51.902;9.542;2022-10-16T11:14:13;23.30;1.00
463;DHT22;218;51.902;9.542;2022-10-16T11:16:44;23.40;1.00
463;DHT22;218;51.902;9.542;2022-10-16T11:19:23;23.40;1.00
463;DHT22;218;51.902;9.542;2022-10-16T11:21:59;23.40;1.00
463;DHT22;218;51.902;9.542;2022-10-16T11:24:35;23.40;1.00
463;DHT22;218;51.902;9.542;2022-10-16T11:27:09;23.50;1.00
463;DHT22;218;51.902;9.542;2022-10-16T11:29:43;23.50;1.00
463;DHT22;218;51.902;9.542;2022-10-16T11:32:19;23.60;1.00
463;DHT22;218;51.902;9.542;2022-10-16T11:34:50;23.60;1.00
463;DHT22;218;51.902;9.542;2022-10-16T11:37:20;23.70;1.00
463;DHT22;218;51.902;9.542;2022-10-16T11:39:50;23.80;1.00
463;DHT22;218;51.902;9.542;2022-10-16T11:42:24;23.90;1.00
463;DHT22;218;51.902;9.542;2022-10-16T11:44:58;23.90;1.00
463;DHT22;218;51.902;9.542;2022-10-16T11:47:32;24.00;1.00
463;DHT22;218;51.902;9.542;2022-10-16T11:50:02;24.00;1.00
463;DHT22;218;51.902;9.542;2022-10-16T11:52:36;24.10;1.00
463;DHT22;218;51.902;9.542;2022-10-16T11:55:14;24.20;1.00
463;DHT22;218;51.902;9.542;2022-10-16T11:57:46;24.20;1.00
463;DHT22;218;51.902;9.542;2022-10-16T12:00:21;24.20;1.00
463;DHT22;218;51.902;9.542;2022-10-16T12:02:56;24.30;1.00
463;DHT22;218;51.902;9.542;2022-10-16T12:05:31;24.30;1.00
463;DHT22;218;51.902;9.542;2022-10-16T12:08:06;24.30;1.00
463;DHT22;218;51.902;9.542;2022-10-16T12:10:35;24.30;1.00
463;DHT22;218;51.902;9.542;2022-10-16T12:13:04;24.40;1.00
463;DHT22;218;51.902;9.542;2022-10-16T12:15:33;24.40;1.00
463;DHT22;218;51.902;9.542;2022-10-16T12:18:00;24.50;1.00
463;DHT22;218;51.902;9.542;2022-10-16T12:20:29;24.50;1.00
463;DHT22;218;51.902;9.542;2022-10-16T12:23:00;24.50;1.00
463;DHT22;218;51.902;9.542;2022-10-16T12:25:29;24.60;1.00
463;DHT22;218;51.902;9.542;2022-10-16T12:28:01;24.60;1.00
463;DHT22;218;51.902;9.542;2022-10-16T12:30:33;24.60;1.00
463;DHT22;218;51.902;9.542;2022-10-16T12:33:02;24.60;1.00
463;DHT22;218;51.902;9.542;2022-10-16T12:35:32;24.60;1.00
463;DHT22;218;51.902;9.542;2022-10-16T12:38:08;24.60;1.00
463;DHT22;218;51.902;9.542;2022-10-16T12:40:40;24.60;1.00
463;DHT22;218;51.902;9.542;2022-10-16T12:43:34;24.70;1.00
463;DHT22;218;51.902;9.542;2022-10-16T12:46:32;24.70;1.00
463;DHT22;218;51.902;9.542;2022-10-16T12:49:23;24.70;1.00
463;DHT22;218;51.902;9.542;2022-10-16T12:51:56;24.80;1.00
463;DHT22;218;51.902;9.542;2022-10-16T12:54:27;24.80;1.00
463;DHT22;218;51.902;9.542;2022-10-16T12:57:20;24.90;1.00
463;DHT22;218;51.902;9.542;2022-10-16T12:59:58;25.00;1.00
463;DHT22;218;51.902;9.542;2022-10-16T13:02:56;25.00;1.00
463;DHT22;218;51.902;9.542;2022-10-16T13:05:35;25.10;1.00
463;DHT22;218;51.902;9.542;2022-10-16T13:08:18;25.10;1.00
463;DHT22;218;51.902;9.542;2022-10-16T13:10:55;25.10;1.00
463;DHT22;218;51.902;9.542;2022-10-16T13:13:51;25.10;1.00
463;DHT22;218;51.902;9.542;2022-10-16T13:16:26;25.20;1.00
463;DHT22;218;51.902;9.542;2022-10-16T13:19:06;25.20;1.00
463;DHT22;218;51.902;9.542;2022-10-16T13:21:46;25.30;1.00
463;DHT22;218;51.902;9.542;2022-10-16T13:24:24;25.30;1.00
463;DHT22;218;51.902;9.542;2022-10-16T13:26:56;25.30;1.00
463;DHT22;218;51.902;9.542;2022-10-16T13:29:23;25.30;1.00
463;DHT22;218;51.902;9.542;2022-10-16T13:31:50;25.30;1.00
463;DHT22;218;51.902;9.542;2022-10-16T13:34:21;25.40;1.00
463;DHT22;218;51.902;9.542;2022-10-16T13:36:50;25.40;1.00
463;DHT22;218;51.902;9.542;2022-10-16T13:39:22;25.30;1.00
463;DHT22;218;51.902;9.542;2022-10-16T13:42:01;25.30;1.00
463;DHT22;218;51.902;9.542;2022-10-16T13:44:39;25.30;1.00
463;DHT22;218;51.902;9.542;2022-10-16T13:47:15;25.30;1.00
463;DHT22;218;51.902;9.542;2022-10-16T13:49:44;25.30;1.00
463;DHT22;218;51.902;9.542;2022-10-16T13:52:18;25.40;1.00
463;DHT22;218;51.902;9.542;2022-10-16T13:54:46;25.30;1.00
463;DHT22;218;51.902;9.542;2022-10-16T13:57:14;25.40;1.00
463;DHT22;218;51.902;9.542;2022-10-16T13:59:41;25.40;1.00
463;DHT22;218;51.902;9.542;2022-10-16T14:02:20;25.40;1.00
463;DHT22;218;51.902;9.542;2022-10-16T14:04:50;25.30;1.00
463;DHT22;218;51.902;9.542;2022-10-16T14:07:21;25.30;1.00
463;DHT22;218;51.902;9.542;2022-10-16T14:09:50;25.30;1.00
463;DHT22;218;51.902;9.542;2022-10-16T14:12:18;25.20;1.00
463;DHT22;218;51.902;9.542;2022-10-16T14:14:47;25.20;1.00
463;DHT22;218;51.902;9.542;2022-10-16T14:17:15;25.10;1.00
463;DHT22;218;51.902;9.542;2022-10-16T14:19:46;25.10;1.00
463;DHT22;218;51.902;9.542;2022-10-16T14:22:28;25.10;1.00
463;DHT22;218;51.902;9.542;2022-10-16T14:24:56;25.10;1.00
463;DHT22;218;51.902;9.542;2022-10-16T14:27:30;25.10;1.00
463;DHT22;218;51.902;9.542;2022-10-16T14:30:13;25.10;1.00
463;DHT22;218;51.902;9.542;2022-10-16T14:32:41;25.10;1.00
463;DHT22;218;51.902;9.542;2022-10-16T14:35:26;25.10;1.00
463;DHT22;218;51.902;9.542;2022-10-16T14:37:56;25.20;1.00
463;DHT22;218;51.902;9.542;2022-10-16T14:40:25;25.20;1.00
463;DHT22;218;51.902;9.542;2022-10-16T14:42:53;25.20;1.00
463;DHT22;218;51.902;9.542;2022-10-16T14:45:21;25.20;1.00
463;DHT22;218;51.902;9.542;2022-10-16T14:47:51;25.20;1.00
463;DHT22;218;51.902;9.542;2022-10-16T14:50:19;25.20;1.00
463;DHT22;218;51.902;9.542;2022-10-16T14:52:46;25.20;1.00
463;DHT22;218;51.902;9.542;2022-10-16T14:55:15;25.20;1.00
463;DHT22;218;51.902;9.542;2022-10-16T14:57:43;25.10;1.00
463;DHT22;218;51.902;9.542;2022-10-16T15:00:17;25.10;1.00
463;DHT22;218;51.902;9.542;2022-10-16T15:02:45;25.10;1.00
463;DHT22;218;51.902;9.542;2022-10-16T15:05:16;25.10;1.00
463;DHT22;218;51.902;9.542;2022-10-16T15:07:43;25.10;1.00
463;DHT22;218;51.902;9.542;2022-10-16T15:10:11;25.10;1.00
463;DHT22;218;51.902;9.542;2022-10-16T15:12:40;25.10;1.00
463;DHT22;218;51.902;9.542;2022-10-16T15:15:27;25.00;1.00
463;DHT22;218;51.902;9.542;2022-10-16T15:17:55;25.00;1.00
463;DHT22;218;51.902;9.542;2022-10-16T15:20:23;24.90;1.00
463;DHT22;218;51.902;9.542;2022-10-16T15:22:50;24.90;1.00
463;DHT22;218;51.902;9.542;2022-10-16T15:25:29;24.80;1.00
463;DHT22;218;51.902;9.542;2022-10-16T15:27:58;24.80;1.00
463;DHT22;218;51.902;9.542;2022-10-16T15:30:26;24.70;1.00
463;DHT22;218;51.902;9.542;2022-10-16T15:32:53;24.60;1.00
463;DHT22;218;51.902;9.542;2022-10-16T15:35:21;24.50;1.00
463;DHT22;218;51.902;9.542;2022-10-16T15:37:48;24.50;1.00
463;DHT22;218;51.902;9.542;2022-10-16T15:40:16;24.40;1.00
463;DHT22;218;51.902;9.542;2022-10-16T15:42:43;24.30;1.00
463;DHT22;218;51.902;9.542;2022-10-16T15:45:12;24.20;1.00
463;DHT22;218;51.902;9.542;2022-10-16T15:47:41;24.10;1.00
463;DHT22;218;51.902;9.542;2022-10-16T15:50:10;24.00;1.00
463;DHT22;218;51.902;9.542;2022-10-16T15:52:37;23.90;1.00
463;DHT22;218;51.902;9.542;2022-10-16T15:55:07;23.80;1.00
463;DHT22;218;51.902;9.542;2022-10-16T15:57:37;23.70;1.00
463;DHT22;218;51.902;9.542;2022-10-16T16:00:07;23.60;1.00
463;DHT22;218;51.902;9.542;2022-10-16T16:02:36;23.40;1.00
463;DHT22;218;51.902;9.542;2022-10-16T16:05:04;23.30;1.00
463;DHT22;218;51.902;9.542;2022-10-16T16:07:33;23.20;1.00
463;DHT22;218;51.902;9.542;2022-10-16T16:10:00;23.10;1.00
463;DHT22;218;51.902;9.542;2022-10-16T16:12:27;23.00;1.00
463;DHT22;218;51.902;9.542;2022-10-16T16:14:54;22.90;1.00
463;DHT22;218;51.902;9.542;2022-10-16T16:17:21;22.80;1.00
463;DHT22;218;51.902;9.542;2022-10-16T16:19:51;22.60;1.00
463;DHT22;218;51.902;9.542;2022-10-16T16:22:18;22.50;1.00
463;DHT22;218;51.902;9.542;2022-10-16T16:24:45;22.40;1.00
463;DHT22;218;51.902;9.542;2022-10-16T16:27:12;22.30;1.00
463;DHT22;218;51.902;9.542;2022-10-16T16:29:40;22.20;1.00
463;DHT22;218;51.902;9.542;2022-10-16T16:32:07;22.10;1.00
463;DHT22;218;51.902;9.542;2022-10-16T16:34:34;22.00;1.00
463;DHT22;218;51.902;9.542;2022-10-16T16:37:03;21.90;1.00
463;DHT22;218;51.902;9.542;2022-10-16T16:39:30;21.80;1.00
463;DHT22;218;51.902;9.542;2022-10-16T16:41:57;21.70;1.00
463;DHT22;218;51.902;9.542;2022-10-16T16:44:25;21.60;1.00
463;DHT22;218;51.902;9.542;2022-10-16T16:46:52;21.50;1.00
463;DHT22;218;51.902;9.542;2022-10-16T16:49:20;21.40;1.00
463;DHT22;218;51.902;9.542;2022-10-16T16:51:47;21.30;1.00
463;DHT22;218;51.902;9.542;2022-10-16T16:54:15;21.20;1.00
463;DHT22;218;51.902;9.542;2022-10-16T16:56:42;21.10;1.00
463;DHT22;218;51.902;9.542;2022-10-16T16:59:14;21.00;1.00
463;DHT22;218;51.902;9.542;2022-10-16T17:01:41;21.00;1.00
463;DHT22;218;51.902;9.542;2022-10-16T17:04:08;20.90;1.00
463;DHT22;218;51.902;9.542;2022-10-16T17:06:37;20.90;1.00
463;DHT22;218;51.902;9.542;2022-10-16T17:09:05;20.80;1.00
463;DHT22;218;51.902;9.542;2022-10-16T17:11:34;20.70;1.00
463;DHT22;218;51.902;9.542;2022-10-16T17:14:01;20.70;1.00
463;DHT22;218;51.902;9.542;2022-10-16T17:16:31;20.60;1.00
463;DHT22;218;51.902;9.542;2022-10-16T17:19:01;20.60;1.00
463;DHT22;218;51.902;9.542;2022-10-16T17:21:29;20.60;1.00
463;DHT22;218;51.902;9.542;2022-10-16T17:23:57;20.60;1.00
463;DHT22;218;51.902;9.542;2022-10-16T17:26:25;20.50;1.00
463;DHT22;218;51.902;9.542;2022-10-16T17:28:58;20.40;1.00
463;DHT22;218;51.902;9.542;2022-10-16T17:31:28;20.30;1.00
463;DHT22;218;51.902;9.542;2022-10-16T17:33:57;20.20;1.00
463;DHT22;218;51.902;9.542;2022-10-16T17:36:25;20.20;1.00
463;DHT22;218;51.902;9.542;2022-10-16T17:38:54;20.20;1.00
463;DHT22;218;51.902;9.542;2022-10-16T17:41:23;20.10;1.00
463;DHT22;218;51.902;9.542;2022-10-16T17:43:52;20.10;1.00
463;DHT22;218;51.902;9.542;2022-10-16T17:46:22;20.10;1.00
463;DHT22;218;51.902;9.542;2022-10-16T17:48:50;20.00;1.00
463;DHT22;218;51.902;9.542;2022-10-16T17:51:20;20.00;1.00
463;DHT22;218;51.902;9.542;2022-10-16T17:53:48;20.00;1.00
463;DHT22;218;51.902;9.542;2022-10-16T17:56:15;20.00;1.00
463;DHT22;218;51.902;9.542;2022-10-16T17:58:42;19.90;1.00
463;DHT22;218;51.902;9.542;2022-10-16T18:01:13;19.90;1.00
463;DHT22;218;51.902;9.542;2022-10-16T18:03:41;19.90;1.00
463;DHT22;218;51.902;9.542;2022-10-16T18:06:09;19.90;1.00
463;DHT22;218;51.902;9.542;2022-10-16T18:08:38;19.90;1.00
463;DHT22;218;51.902;9.542;2022-10-16T18:11:05;19.80;1.00
463;DHT22;218;51.902;9.542;2022-10-16T18:13:32;19.80;1.00
463;DHT22;218;51.902;9.542;2022-10-16T18:16:01;19.80;1.00
463;DHT22;218;51.902;9.542;2022-10-16T18:18:30;19.80;1.00
463;DHT22;218;51.902;9.542;2022-10-16T18:21:02;19.80;1.00
463;DHT22;218;51.902;9.542;2022-10-16T18:23:33;19.80;1.00